sensor_id;sensor_type;location;lat;lon;timestamp;pressure;altitude;pressure_sealevel;temperature;humidity
51439;BME280;38816;51.142;-0.974;2023-03-14T00:00:50;97276.06;;;8.56;100.00
51439;BME280;38816;51.142;-0.974;2023-03-14T00:03:16;97278.63;;;8.55;100.00
51439;BME280;38816;51.142;-0.974;2023-03-14T00:05:41;97280.47;;;8.50;100.00
51439;BME280;38816;51.142;-0.974;2023-03-14T00:08:07;97273.72;;;8.46;100.00
51439;BME280;38816;51.142;-0.974;2023-03-14T00:10:32;97277.03;;;8.51;100.00
51439;BME280;38816;51.142;-0.974;2023-03-14T00:12:57;97272.00;;;8.48;100.00
51439;BME280;38816;51.142;-0.974;2023-03-14T00:15:23;97271.22;;;8.44;100.00
51439;BME280;38816;51.142;-0.974;2023-03-14T00:17:48;97272.97;;;8.42;100.00
51439;BME280;38816;51.142;-0.974;2023-03-14T00:20:14;97272.13;;;8.42;100.00
51439;BME280;38816;51.142;-0.974;2023-03-14T00:22:40;97268.00;;;8.34;100.00
51439;BME280;38816;51.142;-0.974;2023-03-14T00:25:07;97275.50;;;8.44;100.00
51439;BME280;38816;51.142;-0.974;2023-03-14T00:27:33;97283.19;;;8.44;100.00
51439;BME280;38816;51.142;-0.974;2023-03-14T00:29:59;97294.22;;;8.46;100.00
51439;BME280;38816;51.142;-0.974;2023-03-14T00:32:24;97300.22;;;8.45;100.00
51439;BME280;38816;51.142;-0.974;2023-03-14T00:34:50;97295.25;;;8.39;100.00
51439;BME280;38816;51.142;-0.974;2023-03-14T00:37:15;97304.56;;;8.41;100.00
51439;BME280;38816;51.142;-0.974;2023-03-14T00:39:41;97305.47;;;8.39;100.00
51439;BME280;38816;51.142;-0.974;2023-03-14T00:42:06;97321.63;;;8.41;100.00
51439;BME280;38816;51.142;-0.974;2023-03-14T00:44:32;97325.88;;;8.42;100.00
51439;BME280;38816;51.142;-0.974;2023-03-14T00:46:59;97320.84;;;8.37;100.00
51439;BME280;38816;51.142;-0.974;2023-03-14T00:49:25;97345.41;;;8.46;100.00
51439;BME280;38816;51.142;-0.974;2023-03-14T00:51:50;97354.66;;;8.53;100.00
51439;BME280;38816;51.142;-0.974;2023-03-14T00:54:17;97408.41;;;8.53;100.00
51439;BME280;38816;51.142;-0.974;2023-03-14T00:56:42;97429.28;;;8.31;100.00
51439;BME280;38816;51.142;-0.974;2023-03-14T00:59:08;97435.72;;;7.61;100.00
51439;BME280;38816;51.142;-0.974;2023-03-14T01:01:33;97442.22;;;7.26;100.00
51439;BME280;38816;51.142;-0.974;2023-03-14T01:03:58;97440.25;;;6.87;100.00
51439;BME280;38816;51.142;-0.974;2023-03-14T01:06:26;97465.38;;;6.54;100.00
51439;BME280;38816;51.142;-0.974;2023-03-14T01:08:52;97483.25;;;6.51;100.00
51439;BME280;38816;51.142;-0.974;2023-03-14T01:11:26;97474.19;;;6.27;100.00
51439;BME280;38816;51.142;-0.974;2023-03-14T01:13:52;97491.19;;;6.28;100.00
51439;BME280;38816;51.142;-0.974;2023-03-14T01:16:18;97499.81;;;6.15;100.00
51439;BME280;38816;51.142;-0.974;2023-03-14T01:18:45;97495.47;;;6.21;100.00
51439;BME280;38816;51.142;-0.974;2023-03-14T01:23:39;97522.53;;;6.38;100.00
51439;BME280;38816;51.142;-0.974;2023-03-14T01:26:04;97532.75;;;6.34;100.00
51439;BME280;38816;51.142;-0.974;2023-03-14T01:28:33;97531.91;;;6.34;100.00
51439;BME280;38816;51.142;-0.974;2023-03-14T01:31:03;97556.59;;;6.33;100.00
51439;BME280;38816;51.142;-0.974;2023-03-14T01:33:28;97559.34;;;6.14;100.00
51439;BME280;38816;51.142;-0.974;2023-03-14T01:35:54;97572.91;;;6.16;100.00
51439;BME280;38816;51.142;-0.974;2023-03-14T01:38:19;97573.81;;;6.13;100.00
51439;BME280;38816;51.142;-0.974;2023-03-14T01:40:44;97595.09;;;6.07;100.00
51439;BME280;38816;51.142;-0.974;2023-03-14T01:43:17;97584.03;;;6.08;100.00
51439;BME280;38816;51.142;-0.974;2023-03-14T01:46:14;97607.78;;;6.15;100.00
51439;BME280;38816;51.142;-0.974;2023-03-14T01:54:55;97670.84;;;5.89;100.00
51439;BME280;38816;51.142;-0.974;2023-03-14T01:57:35;97675.97;;;5.86;100.00
51439;BME280;38816;51.142;-0.974;2023-03-14T02:02:37;97683.59;;;5.87;100.00
51439;BME280;38816;51.142;-0.974;2023-03-14T02:05:05;97692.97;;;5.83;100.00
51439;BME280;38816;51.142;-0.974;2023-03-14T02:07:54;97711.66;;;5.92;100.00
51439;BME280;38816;51.142;-0.974;2023-03-14T02:10:22;97709.16;;;5.78;100.00
51439;BME280;38816;51.142;-0.974;2023-03-14T02:12:49;97718.50;;;5.71;100.00
51439;BME280;38816;51.142;-0.974;2023-03-14T02:15:16;97707.50;;;5.68;100.00
51439;BME280;38816;51.142;-0.974;2023-03-14T02:17:42;97730.38;;;5.83;100.00
51439;BME280;38816;51.142;-0.974;2023-03-14T02:20:26;97731.28;;;5.73;100.00
51439;BME280;38816;51.142;-0.974;2023-03-14T02:22:53;97739.84;;;5.52;100.00
51439;BME280;38816;51.142;-0.974;2023-03-14T02:27:50;97769.66;;;5.31;100.00
51439;BME280;38816;51.142;-0.974;2023-03-14T02:30:28;97767.91;;;5.38;100.00
51439;BME280;38816;51.142;-0.974;2023-03-14T02:32:58;97766.25;;;5.26;100.00
51439;BME280;38816;51.142;-0.974;2023-03-14T02:35:36;97778.13;;;5.21;100.00
51439;BME280;38816;51.142;-0.974;2023-03-14T02:40:34;97808.72;;;5.15;100.00
51439;BME280;38816;51.142;-0.974;2023-03-14T02:43:00;97817.19;;;5.25;100.00
51439;BME280;38816;51.142;-0.974;2023-03-14T02:45:33;97808.69;;;5.21;100.00
51439;BME280;38816;51.142;-0.974;2023-03-14T02:48:03;97808.72;;;5.06;100.00
51439;BME280;38816;51.142;-0.974;2023-03-14T02:50:33;97810.44;;;4.92;100.00
51439;BME280;38816;51.142;-0.974;2023-03-14T02:52:59;97815.53;;;4.82;100.00
51439;BME280;38816;51.142;-0.974;2023-03-14T02:55:25;97834.19;;;4.98;100.00
51439;BME280;38816;51.142;-0.974;2023-03-14T02:57:52;97850.31;;;5.02;100.00
51439;BME280;38816;51.142;-0.974;2023-03-14T03:00:18;97852.00;;;4.94;100.00
51439;BME280;38816;51.142;-0.974;2023-03-14T03:02:43;97853.72;;;4.82;100.00
51439;BME280;38816;51.142;-0.974;2023-03-14T03:05:09;97868.97;;;4.73;100.00
51439;BME280;38816;51.142;-0.974;2023-03-14T03:07:34;97872.34;;;4.65;100.00
51439;BME280;38816;51.142;-0.974;2023-03-14T03:09:59;97876.53;;;4.44;100.00
51439;BME280;38816;51.142;-0.974;2023-03-14T03:12:25;97894.38;;;4.50;100.00
51439;BME280;38816;51.142;-0.974;2023-03-14T03:14:50;97906.22;;;4.44;100.00
51439;BME280;38816;51.142;-0.974;2023-03-14T03:17:16;97909.59;;;4.38;100.00
51439;BME280;38816;51.142;-0.974;2023-03-14T03:19:41;97912.09;;;4.24;100.00
51439;BME280;38816;51.142;-0.974;2023-03-14T03:22:07;97929.03;;;4.24;100.00
51439;BME280;38816;51.142;-0.974;2023-03-14T03:24:32;97905.16;;;3.94;100.00
51439;BME280;38816;51.142;-0.974;2023-03-14T03:26:58;97927.13;;;3.85;100.00
51439;BME280;38816;51.142;-0.974;2023-03-14T03:29:23;97940.69;;;3.87;100.00
51439;BME280;38816;51.142;-0.974;2023-03-14T03:31:48;97957.66;;;3.91;100.00
51439;BME280;38816;51.142;-0.974;2023-03-14T03:34:14;97946.63;;;3.84;100.00
51439;BME280;38816;51.142;-0.974;2023-03-14T03:36:39;97957.63;;;3.86;100.00
51439;BME280;38816;51.142;-0.974;2023-03-14T03:39:05;97966.91;;;3.83;100.00
51439;BME280;38816;51.142;-0.974;2023-03-14T03:41:31;97975.44;;;3.89;100.00
51439;BME280;38816;51.142;-0.974;2023-03-14T03:43:56;97981.41;;;3.93;100.00
51439;BME280;38816;51.142;-0.974;2023-03-14T03:46:22;97983.06;;;3.85;100.00
51439;BME280;38816;51.142;-0.974;2023-03-14T03:48:47;98005.97;;;3.94;100.00
51439;BME280;38816;51.142;-0.974;2023-03-14T03:51:14;98001.69;;;3.87;100.00
51439;BME280;38816;51.142;-0.974;2023-03-14T03:53:40;97993.19;;;3.78;100.00
51439;BME280;38816;51.142;-0.974;2023-03-14T03:56:06;98016.88;;;3.77;100.00
51439;BME280;38816;51.142;-0.974;2023-03-14T03:58:32;98020.34;;;3.89;100.00
51439;BME280;38816;51.142;-0.974;2023-03-14T04:00:57;98028.97;;;4.12;100.00
51439;BME280;38816;51.142;-0.974;2023-03-14T04:03:22;98056.00;;;3.98;100.00
51439;BME280;38816;51.142;-0.974;2023-03-14T04:06:07;98041.53;;;3.88;100.00
51439;BME280;38816;51.142;-0.974;2023-03-14T04:08:33;98032.00;;;3.61;100.00
51439;BME280;38816;51.142;-0.974;2023-03-14T04:11:00;98037.22;;;3.80;100.00
51439;BME280;38816;51.142;-0.974;2023-03-14T04:13:26;98055.75;;;3.67;100.00
51439;BME280;38816;51.142;-0.974;2023-03-14T04:15:52;98060.72;;;3.55;100.00
51439;BME280;38816;51.142;-0.974;2023-03-14T04:18:18;98051.31;;;3.46;100.00
51439;BME280;38816;51.142;-0.974;2023-03-14T04:20:44;98052.94;;;3.37;100.00
51439;BME280;38816;51.142;-0.974;2023-03-14T04:23:10;98080.84;;;3.35;100.00
51439;BME280;38816;51.142;-0.974;2023-03-14T04:25:35;98081.00;;;3.49;100.00
51439;BME280;38816;51.142;-0.974;2023-03-14T04:28:01;98085.22;;;3.47;100.00
51439;BME280;38816;51.142;-0.974;2023-03-14T04:30:27;98092.00;;;3.48;100.00
51439;BME280;38816;51.142;-0.974;2023-03-14T04:32:52;98103.84;;;3.50;100.00
51439;BME280;38816;51.142;-0.974;2023-03-14T04:35:17;98100.41;;;3.44;100.00
51439;BME280;38816;51.142;-0.974;2023-03-14T04:37:43;98117.44;;;3.55;100.00
51439;BME280;38816;51.142;-0.974;2023-03-14T04:40:09;98092.72;;;3.36;100.00
51439;BME280;38816;51.142;-0.974;2023-03-14T04:42:35;98107.06;;;3.31;100.00
51439;BME280;38816;51.142;-0.974;2023-03-14T04:45:00;98111.28;;;3.30;100.00
51439;BME280;38816;51.142;-0.974;2023-03-14T04:47:26;98104.34;;;3.17;100.00
51439;BME280;38816;51.142;-0.974;2023-03-14T04:49:52;98108.50;;;3.09;100.00
51439;BME280;38816;51.142;-0.974;2023-03-14T04:52:17;98105.00;;;2.98;100.00
51439;BME280;38816;51.142;-0.974;2023-03-14T04:54:42;98122.09;;;3.14;100.00
51439;BME280;38816;51.142;-0.974;2023-03-14T04:57:08;98133.38;;;3.39;100.00
51439;BME280;38816;51.142;-0.974;2023-03-14T04:59:33;98140.69;;;3.12;100.00
51439;BME280;38816;51.142;-0.974;2023-03-14T05:01:59;98141.38;;;3.00;100.00
51439;BME280;38816;51.142;-0.974;2023-03-14T05:04:49;98169.28;;;3.00;100.00
51439;BME280;38816;51.142;-0.974;2023-03-14T05:07:15;98175.88;;;2.86;100.00
51439;BME280;38816;51.142;-0.974;2023-03-14T05:09:40;98177.47;;;2.79;100.00
51439;BME280;38816;51.142;-0.974;2023-03-14T05:12:05;98192.59;;;2.73;100.00
51439;BME280;38816;51.142;-0.974;2023-03-14T05:14:31;98203.44;;;2.61;100.00
51439;BME280;38816;51.142;-0.974;2023-03-14T05:16:56;98183.94;;;2.59;100.00
51439;BME280;38816;51.142;-0.974;2023-03-14T05:19:22;98190.63;;;2.53;100.00
51439;BME280;38816;51.142;-0.974;2023-03-14T05:21:47;98203.34;;;2.55;100.00
51439;BME280;38816;51.142;-0.974;2023-03-14T05:24:13;98206.75;;;2.57;100.00
51439;BME280;38816;51.142;-0.974;2023-03-14T05:26:38;98216.13;;;2.61;100.00
51439;BME280;38816;51.142;-0.974;2023-03-14T05:29:03;98223.56;;;2.52;100.00
51439;BME280;38816;51.142;-0.974;2023-03-14T05:31:29;98217.56;;;2.45;100.00
51439;BME280;38816;51.142;-0.974;2023-03-14T05:33:54;98232.91;;;2.54;100.00
51439;BME280;38816;51.142;-0.974;2023-03-14T05:36:19;98242.94;;;2.47;100.00
51439;BME280;38816;51.142;-0.974;2023-03-14T05:38:45;98242.84;;;2.41;100.00
51439;BME280;38816;51.142;-0.974;2023-03-14T05:41:10;98252.41;;;2.57;100.00
51439;BME280;38816;51.142;-0.974;2023-03-14T05:43:35;98250.47;;;2.42;100.00
51439;BME280;38816;51.142;-0.974;2023-03-14T05:46:01;98259.75;;;2.40;100.00
51439;BME280;38816;51.142;-0.974;2023-03-14T05:48:26;98264.09;;;2.49;100.00
51439;BME280;38816;51.142;-0.974;2023-03-14T05:50:56;98284.28;;;2.43;100.00
51439;BME280;38816;51.142;-0.974;2023-03-14T05:53:22;98278.19;;;2.33;100.00
51439;BME280;38816;51.142;-0.974;2023-03-14T05:55:47;98294.31;;;2.37;100.00
51439;BME280;38816;51.142;-0.974;2023-03-14T05:58:12;98290.94;;;2.36;100.00
51439;BME280;38816;51.142;-0.974;2023-03-14T06:00:38;98304.56;;;2.43;100.00
51439;BME280;38816;51.142;-0.974;2023-03-14T06:03:03;98311.41;;;2.47;100.00
51439;BME280;38816;51.142;-0.974;2023-03-14T06:05:28;98310.63;;;2.51;100.00
51439;BME280;38816;51.142;-0.974;2023-03-14T06:07:54;98324.13;;;2.48;100.00
51439;BME280;38816;51.142;-0.974;2023-03-14T06:10:19;98307.06;;;2.40;100.00
51439;BME280;38816;51.142;-0.974;2023-03-14T06:12:45;98320.00;;;2.55;100.00
51439;BME280;38816;51.142;-0.974;2023-03-14T06:15:10;98322.44;;;2.49;100.00
51439;BME280;38816;51.142;-0.974;2023-03-14T06:17:36;98323.38;;;2.54;100.00
51439;BME280;38816;51.142;-0.974;2023-03-14T06:20:01;98311.63;;;2.61;100.00
51439;BME280;38816;51.142;-0.974;2023-03-14T06:22:27;98329.50;;;2.67;100.00
51439;BME280;38816;51.142;-0.974;2023-03-14T06:24:52;98318.66;;;2.75;100.00
51439;BME280;38816;51.142;-0.974;2023-03-14T06:27:17;98345.81;;;2.81;100.00
51439;BME280;38816;51.142;-0.974;2023-03-14T06:29:43;98344.91;;;2.77;100.00
51439;BME280;38816;51.142;-0.974;2023-03-14T06:32:08;98355.97;;;2.83;100.00
51439;BME280;38816;51.142;-0.974;2023-03-14T06:34:34;98361.94;;;2.85;100.00
51439;BME280;38816;51.142;-0.974;2023-03-14T06:36:59;98357.66;;;2.81;100.00
51439;BME280;38816;51.142;-0.974;2023-03-14T06:39:24;98360.97;;;2.76;100.00
51439;BME280;38816;51.142;-0.974;2023-03-14T06:41:50;98370.34;;;2.82;100.00
51439;BME280;38816;51.142;-0.974;2023-03-14T06:44:15;98378.94;;;2.89;100.00
51439;BME280;38816;51.142;-0.974;2023-03-14T06:46:40;98381.63;;;2.98;100.00
51439;BME280;38816;51.142;-0.974;2023-03-14T06:49:06;98391.63;;;2.89;100.00
51439;BME280;38816;51.142;-0.974;2023-03-14T06:51:31;98392.50;;;2.92;100.00
51439;BME280;38816;51.142;-0.974;2023-03-14T06:53:57;98396.78;;;2.93;100.00
51439;BME280;38816;51.142;-0.974;2023-03-14T06:56:22;98409.63;;;3.02;100.00
51439;BME280;38816;51.142;-0.974;2023-03-14T06:58:48;98418.94;;;3.03;100.00
51439;BME280;38816;51.142;-0.974;2023-03-14T07:01:39;98432.56;;;3.10;100.00
51439;BME280;38816;51.142;-0.974;2023-03-14T07:04:05;98428.13;;;2.97;100.00
51439;BME280;38816;51.142;-0.974;2023-03-14T07:06:30;98430.78;;;3.03;100.00
51439;BME280;38816;51.142;-0.974;2023-03-14T07:08:56;98452.09;;;3.13;100.00
51439;BME280;38816;51.142;-0.974;2023-03-14T07:11:22;98458.94;;;3.17;100.00
51439;BME280;38816;51.142;-0.974;2023-03-14T07:13:47;98458.13;;;3.19;100.00
51439;BME280;38816;51.142;-0.974;2023-03-14T07:16:13;98476.78;;;3.21;100.00
51439;BME280;38816;51.142;-0.974;2023-03-14T07:18:38;98482.53;;;3.11;100.00
51439;BME280;38816;51.142;-0.974;2023-03-14T07:21:05;98496.09;;;3.12;100.00
51439;BME280;38816;51.142;-0.974;2023-03-14T07:23:31;98500.31;;;3.11;100.00
51439;BME280;38816;51.142;-0.974;2023-03-14T07:25:56;98501.25;;;3.18;100.00
51439;BME280;38816;51.142;-0.974;2023-03-14T07:28:22;98513.41;;;3.36;100.00
51439;BME280;38816;51.142;-0.974;2023-03-14T07:30:48;98523.94;;;3.57;100.00
51439;BME280;38816;51.142;-0.974;2023-03-14T07:33:13;98512.19;;;3.64;100.00
51439;BME280;38816;51.142;-0.974;2023-03-14T07:35:39;98519.06;;;3.69;100.00
51439;BME280;38816;51.142;-0.974;2023-03-14T07:38:04;98535.28;;;3.77;100.00
51439;BME280;38816;51.142;-0.974;2023-03-14T07:40:29;98531.03;;;3.76;100.00
51439;BME280;38816;51.142;-0.974;2023-03-14T07:42:55;98548.25;;;3.94;100.00
51439;BME280;38816;51.142;-0.974;2023-03-14T07:45:20;98548.47;;;4.10;100.00
51439;BME280;38816;51.142;-0.974;2023-03-14T07:47:46;98554.41;;;4.09;100.00
51439;BME280;38816;51.142;-0.974;2023-03-14T07:50:11;98571.34;;;4.08;100.00
51439;BME280;38816;51.142;-0.974;2023-03-14T07:52:36;98589.94;;;4.04;100.00
51439;BME280;38816;51.142;-0.974;2023-03-14T07:55:02;98588.31;;;4.09;100.00
51439;BME280;38816;51.142;-0.974;2023-03-14T07:57:27;98597.97;;;4.30;100.00
51439;BME280;38816;51.142;-0.974;2023-03-14T07:59:52;98608.13;;;4.28;100.00
51439;BME280;38816;51.142;-0.974;2023-03-14T08:02:18;98608.06;;;4.24;100.00
51439;BME280;38816;51.142;-0.974;2023-03-14T08:04:47;98623.44;;;4.33;100.00
51439;BME280;38816;51.142;-0.974;2023-03-14T08:07:13;98633.50;;;4.25;100.00
51439;BME280;38816;51.142;-0.974;2023-03-14T08:09:38;98629.28;;;4.27;100.00
51439;BME280;38816;51.142;-0.974;2023-03-14T08:12:04;98642.91;;;4.29;100.00
51439;BME280;38816;51.142;-0.974;2023-03-14T08:14:29;98641.47;;;4.47;100.00
51439;BME280;38816;51.142;-0.974;2023-03-14T08:16:55;98630.31;;;4.39;100.00
51439;BME280;38816;51.142;-0.974;2023-03-14T08:19:21;98650.84;;;4.51;100.00
51439;BME280;38816;51.142;-0.974;2023-03-14T08:21:46;98661.75;;;4.44;100.00
51439;BME280;38816;51.142;-0.974;2023-03-14T08:24:12;98673.66;;;4.45;100.00
51439;BME280;38816;51.142;-0.974;2023-03-14T08:26:37;98679.50;;;4.39;100.00
51439;BME280;38816;51.142;-0.974;2023-03-14T08:29:03;98688.06;;;4.44;100.00
51439;BME280;38816;51.142;-0.974;2023-03-14T08:31:29;98687.97;;;4.38;100.00
51439;BME280;38816;51.142;-0.974;2023-03-14T08:33:55;98694.91;;;4.47;100.00
51439;BME280;38816;51.142;-0.974;2023-03-14T08:36:20;98717.81;;;4.50;100.00
51439;BME280;38816;51.142;-0.974;2023-03-14T08:38:45;98705.25;;;4.59;100.00
51439;BME280;38816;51.142;-0.974;2023-03-14T08:41:11;98725.72;;;4.67;100.00
51439;BME280;38816;51.142;-0.974;2023-03-14T08:43:36;98746.22;;;4.73;100.00
51439;BME280;38816;51.142;-0.974;2023-03-14T08:46:03;98729.03;;;4.60;100.00
51439;BME280;38816;51.142;-0.974;2023-03-14T08:48:29;98758.88;;;4.71;100.00
51439;BME280;38816;51.142;-0.974;2023-03-14T08:50:57;98754.66;;;4.72;100.00
51439;BME280;38816;51.142;-0.974;2023-03-14T08:53:22;98770.97;;;4.83;100.00
51439;BME280;38816;51.142;-0.974;2023-03-14T08:55:52;98781.75;;;4.68;100.00
51439;BME280;38816;51.142;-0.974;2023-03-14T08:58:18;98796.84;;;4.59;100.00
51439;BME280;38816;51.142;-0.974;2023-03-14T09:00:43;98792.91;;;4.26;100.00
51439;BME280;38816;51.142;-0.974;2023-03-14T09:03:09;98808.16;;;4.25;100.00
51439;BME280;38816;51.142;-0.974;2023-03-14T09:05:34;98815.88;;;4.31;100.00
51439;BME280;38816;51.142;-0.974;2023-03-14T09:08:00;98821.19;;;4.42;100.00
51439;BME280;38816;51.142;-0.974;2023-03-14T09:10:25;98821.28;;;4.48;100.00
51439;BME280;38816;51.142;-0.974;2023-03-14T09:12:51;98836.09;;;4.70;100.00
51439;BME280;38816;51.142;-0.974;2023-03-14T09:15:16;98839.47;;;4.69;100.00
51439;BME280;38816;51.142;-0.974;2023-03-14T09:17:43;98838.72;;;4.76;100.00
51439;BME280;38816;51.142;-0.974;2023-03-14T09:20:09;98856.06;;;4.99;100.00
51439;BME280;38816;51.142;-0.974;2023-03-14T09:22:35;98862.31;;;5.16;100.00
51439;BME280;38816;51.142;-0.974;2023-03-14T09:25:05;98875.16;;;5.22;100.00
51439;BME280;38816;51.142;-0.974;2023-03-14T09:27:30;98880.97;;;5.15;100.00
51439;BME280;38816;51.142;-0.974;2023-03-14T09:29:56;98884.88;;;4.95;100.00
51439;BME280;38816;51.142;-0.974;2023-03-14T09:32:21;98887.00;;;4.72;100.00
51439;BME280;38816;51.142;-0.974;2023-03-14T09:34:47;98891.25;;;4.71;100.00
51439;BME280;38816;51.142;-0.974;2023-03-14T09:37:12;98914.50;;;4.90;100.00
51439;BME280;38816;51.142;-0.974;2023-03-14T09:39:37;98922.88;;;4.82;100.00
51439;BME280;38816;51.142;-0.974;2023-03-14T09:42:06;98928.25;;;4.54;100.00
51439;BME280;38816;51.142;-0.974;2023-03-14T09:44:37;98956.88;;;4.42;100.00
51439;BME280;38816;51.142;-0.974;2023-03-14T09:47:06;98960.22;;;4.00;100.00
51439;BME280;38816;51.142;-0.974;2023-03-14T09:49:33;98969.19;;;3.85;100.00
51439;BME280;38816;51.142;-0.974;2023-03-14T09:52:02;98971.47;;;3.72;100.00
51439;BME280;38816;51.142;-0.974;2023-03-14T09:54:35;98984.66;;;3.94;100.00
51439;BME280;38816;51.142;-0.974;2023-03-14T09:57:02;98989.03;;;3.99;100.00
51439;BME280;38816;51.142;-0.974;2023-03-14T09:59:29;99005.09;;;3.97;100.00
51439;BME280;38816;51.142;-0.974;2023-03-14T10:01:58;99016.78;;;3.90;100.00
51439;BME280;38816;51.142;-0.974;2023-03-14T10:04:26;99010.09;;;3.94;100.00
51439;BME280;38816;51.142;-0.974;2023-03-14T10:06:53;99028.28;;;4.11;100.00
51439;BME280;38816;51.142;-0.974;2023-03-14T10:09:23;99028.81;;;4.37;100.00
51439;BME280;38816;51.142;-0.974;2023-03-14T10:11:54;99041.44;;;4.71;100.00
51439;BME280;38816;51.142;-0.974;2023-03-14T10:14:32;99034.66;;;4.72;100.00
51439;BME280;38816;51.142;-0.974;2023-03-14T10:17:05;99052.81;;;4.89;100.00
51439;BME280;38816;51.142;-0.974;2023-03-14T10:19:32;99051.28;;;4.97;100.00
51439;BME280;38816;51.142;-0.974;2023-03-14T10:22:00;99066.06;;;5.15;100.00
51439;BME280;38816;51.142;-0.974;2023-03-14T10:24:29;99079.91;;;5.27;100.00
51439;BME280;38816;51.142;-0.974;2023-03-14T10:26:59;99099.28;;;5.21;100.00
51439;BME280;38816;51.142;-0.974;2023-03-14T10:29:28;99100.91;;;5.17;100.00
51439;BME280;38816;51.142;-0.974;2023-03-14T10:31:58;99109.50;;;5.21;100.00
51439;BME280;38816;51.142;-0.974;2023-03-14T10:34:37;99106.75;;;5.12;100.00
51439;BME280;38816;51.142;-0.974;2023-03-14T10:37:15;99098.16;;;5.06;100.00
51439;BME280;38816;51.142;-0.974;2023-03-14T10:39:47;99120.06;;;4.98;100.00
51439;BME280;38816;51.142;-0.974;2023-03-14T10:44:42;99134.09;;;4.78;100.00
51439;BME280;38816;51.142;-0.974;2023-03-14T10:47:18;99141.88;;;4.86;100.00
51439;BME280;38816;51.142;-0.974;2023-03-14T10:49:44;99151.56;;;5.02;100.00
51439;BME280;38816;51.142;-0.974;2023-03-14T10:52:18;99157.41;;;5.39;100.00
51439;BME280;38816;51.142;-0.974;2023-03-14T10:54:47;99157.13;;;5.69;100.00
51439;BME280;38816;51.142;-0.974;2023-03-14T10:57:13;99161.91;;;5.96;100.00
51439;BME280;38816;51.142;-0.974;2023-03-14T10:59:40;99166.47;;;6.14;100.00
51439;BME280;38816;51.142;-0.974;2023-03-14T11:05:34;99177.81;;;6.31;100.00
51439;BME280;38816;51.142;-0.974;2023-03-14T11:10:45;99184.31;;;6.67;100.00
51439;BME280;38816;51.142;-0.974;2023-03-14T11:13:23;99197.50;;;6.96;100.00
51439;BME280;38816;51.142;-0.974;2023-03-14T11:18:53;99192.88;;;6.70;96.62
51439;BME280;38816;51.142;-0.974;2023-03-14T11:21:58;99219.81;;;6.51;94.21
51439;BME280;38816;51.142;-0.974;2023-03-14T11:24:33;99209.22;;;6.28;95.10
51439;BME280;38816;51.142;-0.974;2023-03-14T11:27:10;99220.44;;;6.37;96.41
51439;BME280;38816;51.142;-0.974;2023-03-14T11:32:17;99227.31;;;6.41;96.70
51439;BME280;38816;51.142;-0.974;2023-03-14T11:34:50;99238.59;;;6.55;95.51
51439;BME280;38816;51.142;-0.974;2023-03-14T11:37:29;99231.72;;;6.49;93.56
51439;BME280;38816;51.142;-0.974;2023-03-14T11:42:32;99242.44;;;6.81;90.03
51439;BME280;38816;51.142;-0.974;2023-03-14T11:44:59;99253.19;;;6.62;93.63
51439;BME280;38816;51.142;-0.974;2023-03-14T11:47:39;99266.84;;;6.64;94.11
51439;BME280;38816;51.142;-0.974;2023-03-14T11:50:21;99269.03;;;6.94;87.01
51439;BME280;38816;51.142;-0.974;2023-03-14T11:53:01;99271.53;;;6.91;89.22
51439;BME280;38816;51.142;-0.974;2023-03-14T11:55:32;99277.69;;;7.04;88.34
51439;BME280;38816;51.142;-0.974;2023-03-14T11:58:30;99287.56;;;7.40;86.82
51439;BME280;38816;51.142;-0.974;2023-03-14T12:00:56;99290.59;;;7.75;88.14
51439;BME280;38816;51.142;-0.974;2023-03-14T12:03:29;99301.59;;;7.70;81.61
51439;BME280;38816;51.142;-0.974;2023-03-14T12:06:16;99304.75;;;7.50;80.00
51439;BME280;38816;51.142;-0.974;2023-03-14T12:11:49;99305.31;;;7.29;81.92
51439;BME280;38816;51.142;-0.974;2023-03-14T12:14:35;99310.22;;;7.75;81.78
51439;BME280;38816;51.142;-0.974;2023-03-14T12:17:21;99315.03;;;8.23;77.86
51439;BME280;38816;51.142;-0.974;2023-03-14T12:20:19;99319.50;;;8.38;74.20
51439;BME280;38816;51.142;-0.974;2023-03-14T12:22:50;99320.34;;;8.39;76.01
51439;BME280;38816;51.142;-0.974;2023-03-14T12:25:20;99324.91;;;8.66;77.08
51439;BME280;38816;51.142;-0.974;2023-03-14T12:30:26;99329.31;;;8.85;75.43
51439;BME280;38816;51.142;-0.974;2023-03-14T12:35:52;99335.72;;;8.42;72.21
51439;BME280;38816;51.142;-0.974;2023-03-14T12:41:08;99339.91;;;8.35;72.48
51439;BME280;38816;51.142;-0.974;2023-03-14T12:43:38;99345.88;;;8.35;72.97
51439;BME280;38816;51.142;-0.974;2023-03-14T12:49:05;99340.31;;;8.73;73.32
51439;BME280;38816;51.142;-0.974;2023-03-14T12:51:42;99344.91;;;9.08;69.77
51439;BME280;38816;51.142;-0.974;2023-03-14T12:54:22;99361.97;;;9.06;68.92
51439;BME280;38816;51.142;-0.974;2023-03-14T12:59:51;99359.94;;;8.71;66.44
51439;BME280;38816;51.142;-0.974;2023-03-14T13:02:20;99365.50;;;8.33;68.01
51439;BME280;38816;51.142;-0.974;2023-03-14T13:05:13;99370.47;;;8.20;70.97
51439;BME280;38816;51.142;-0.974;2023-03-14T13:17:48;99368.69;;;8.14;69.89
51439;BME280;38816;51.142;-0.974;2023-03-14T13:20:22;99369.75;;;8.31;72.40
51439;BME280;38816;51.142;-0.974;2023-03-14T13:22:50;99358.00;;;8.49;72.13
51439;BME280;38816;51.142;-0.974;2023-03-14T13:25:16;99370.97;;;8.64;71.70
51439;BME280;38816;51.142;-0.974;2023-03-14T13:27:43;99355.56;;;8.58;66.75
51439;BME280;38816;51.142;-0.974;2023-03-14T13:30:20;99353.13;;;8.73;68.81
51439;BME280;38816;51.142;-0.974;2023-03-14T13:32:47;99354.13;;;8.87;64.37
51439;BME280;38816;51.142;-0.974;2023-03-14T13:35:27;99352.47;;;8.93;61.48
51439;BME280;38816;51.142;-0.974;2023-03-14T13:37:59;99362.03;;;9.12;58.14
51439;BME280;38816;51.142;-0.974;2023-03-14T13:40:33;99349.28;;;9.23;58.46
51439;BME280;38816;51.142;-0.974;2023-03-14T13:43:29;99364.84;;;9.47;58.39
51439;BME280;38816;51.142;-0.974;2023-03-14T13:46:16;99372.50;;;9.43;54.34
51439;BME280;38816;51.142;-0.974;2023-03-14T13:48:48;99370.00;;;9.52;55.48
51439;BME280;38816;51.142;-0.974;2023-03-14T13:51:17;99369.25;;;9.71;53.69
51439;BME280;38816;51.142;-0.974;2023-03-14T13:56:14;99381.22;;;9.66;54.08
51439;BME280;38816;51.142;-0.974;2023-03-14T13:58:41;99386.53;;;9.97;47.13
51439;BME280;38816;51.142;-0.974;2023-03-14T14:01:14;99389.94;;;9.91;44.94